sensor_id;sensor_type;location;lat;lon;timestamp;pressure;altitude;pressure_sealevel;temperature;humidity
66206;BME280;53009;52.490;4.976;2024-02-23T00:04:59;155800;;;6.6;8.5
66206;BME280;53009;52.490;4.976;2024-02-23T00:09:59;155800;;;6.6;8.3
66206;BME280;53009;52.490;4.976;2024-02-23T00:14:59;155700;;;6.6;8.1
66206;BME280;53009;52.490;4.976;2024-02-23T00:19:59;155700;;;6.7;8.4
66206;BME280;53009;52.490;4.976;2024-02-23T00:24:59;155700;;;6.7;8.3
66206;BME280;53009;52.490;4.976;2024-02-23T00:29:59;155700;;;6.7;8.5
66206;BME280;53009;52.490;4.976;2024-02-23T00:34:59;155700;;;6.7;8.1
66206;BME280;53009;52.490;4.976;2024-02-23T00:39:59;155700;;;6.7;8
66206;BME280;53009;52.490;4.976;2024-02-23T00:44:59;155700;;;6.7;8.1
66206;BME280;53009;52.490;4.976;2024-02-23T00:49:59;155700;;;6.7;8.4
66206;BME280;53009;52.490;4.976;2024-02-23T00:54:59;155700;;;6.7;8.2
66206;BME280;53009;52.490;4.976;2024-02-23T00:59:59;155700;;;6.6;8.3
66206;BME280;53009;52.490;4.976;2024-02-23T01:04:59;155700;;;6.6;8.3
66206;BME280;53009;52.490;4.976;2024-02-23T01:09:59;155700;;;6.6;8.4
66206;BME280;53009;52.490;4.976;2024-02-23T01:14:59;155700;;;6.5;8.4
66206;BME280;53009;52.490;4.976;2024-02-23T01:19:59;155700;;;6.5;8.3
66206;BME280;53009;52.490;4.976;2024-02-23T01:24:59;155700;;;6.5;8.4
66206;BME280;53009;52.490;4.976;2024-02-23T01:29:59;155700;;;6.5;8.3
66206;BME280;53009;52.490;4.976;2024-02-23T01:34:59;155700;;;6.5;8.3
66206;BME280;53009;52.490;4.976;2024-02-23T01:39:59;155700;;;6.4;8.3
66206;BME280;53009;52.490;4.976;2024-02-23T01:44:59;155700;;;6.4;8.4
66206;BME280;53009;52.490;4.976;2024-02-23T01:49:59;155700;;;6.4;8.4
66206;BME280;53009;52.490;4.976;2024-02-23T01:55:02;155700;;;6.4;8.5
66206;BME280;53009;52.490;4.976;2024-02-23T01:59:59;155700;;;6.4;8.4
66206;BME280;53009;52.490;4.976;2024-02-23T02:04:59;155700;;;6.4;8.4
66206;BME280;53009;52.490;4.976;2024-02-23T02:09:59;155700;;;6.3;8.5
66206;BME280;53009;52.490;4.976;2024-02-23T02:14:59;155700;;;6.3;8.4
66206;BME280;53009;52.490;4.976;2024-02-23T02:19:59;155700;;;6.3;8.5
66206;BME280;53009;52.490;4.976;2024-02-23T02:24:59;155700;;;6.3;8.4
66206;BME280;53009;52.490;4.976;2024-02-23T02:29:59;155700;;;6.3;8.5
66206;BME280;53009;52.490;4.976;2024-02-23T02:34:59;155700;;;6.2;8.4
66206;BME280;53009;52.490;4.976;2024-02-23T02:39:59;155700;;;6.2;8.3
66206;BME280;53009;52.490;4.976;2024-02-23T02:44:59;155700;;;6.3;8.3
66206;BME280;53009;52.490;4.976;2024-02-23T02:49:59;155700;;;6.3;8.2
66206;BME280;53009;52.490;4.976;2024-02-23T02:54:59;155700;;;6.3;8.4
66206;BME280;53009;52.490;4.976;2024-02-23T02:59:59;155700;;;6.2;8.6
66206;BME280;53009;52.490;4.976;2024-02-23T03:04:59;155700;;;6.2;8.4
66206;BME280;53009;52.490;4.976;2024-02-23T03:09:59;155700;;;6.2;8.5
66206;BME280;53009;52.490;4.976;2024-02-23T03:14:59;155700;;;6.2;8.5
66206;BME280;53009;52.490;4.976;2024-02-23T03:19:59;155600;;;6.1;8.4
66206;BME280;53009;52.490;4.976;2024-02-23T03:24:59;155600;;;6.2;8.4
66206;BME280;53009;52.490;4.976;2024-02-23T03:29:59;155600;;;6.2;8.6
66206;BME280;53009;52.490;4.976;2024-02-23T03:35:02;155600;;;6.1;8.6
66206;BME280;53009;52.490;4.976;2024-02-23T03:39:59;155600;;;6.1;8.8
66206;BME280;53009;52.490;4.976;2024-02-23T03:44:59;155600;;;6.1;8.8
66206;BME280;53009;52.490;4.976;2024-02-23T03:49:59;155600;;;6.1;8.8
66206;BME280;53009;52.490;4.976;2024-02-23T03:54:59;155600;;;6.1;8.8
66206;BME280;53009;52.490;4.976;2024-02-23T03:59:59;155600;;;6.2;8.7
66206;BME280;53009;52.490;4.976;2024-02-23T04:05:02;155600;;;6.2;8.8
66206;BME280;53009;52.490;4.976;2024-02-23T04:09:59;155600;;;6.2;8.6
66206;BME280;53009;52.490;4.976;2024-02-23T04:14:59;155600;;;6.2;8.7
66206;BME280;53009;52.490;4.976;2024-02-23T04:20:05;155600;;;6.1;8.8
66206;BME280;53009;52.490;4.976;2024-02-23T04:24:59;155600;;;6.1;8.7
66206;BME280;53009;52.490;4.976;2024-02-23T04:29:59;155600;;;6.1;8.8
66206;BME280;53009;52.490;4.976;2024-02-23T04:34:59;155600;;;6;8.8
66206;BME280;53009;52.490;4.976;2024-02-23T04:39:59;155600;;;5.9;8.8
66206;BME280;53009;52.490;4.976;2024-02-23T04:44:59;155600;;;5.8;8.8
66206;BME280;53009;52.490;4.976;2024-02-23T04:49:59;155600;;;5.8;9
66206;BME280;53009;52.490;4.976;2024-02-23T04:54:59;155600;;;5.8;9.1
66206;BME280;53009;52.490;4.976;2024-02-23T04:59:59;155600;;;5.9;9.2
66206;BME280;53009;52.490;4.976;2024-02-23T05:04:59;155600;;;5.9;9.2
66206;BME280;53009;52.490;4.976;2024-02-23T05:09:59;155600;;;5.9;9.1
66206;BME280;53009;52.490;4.976;2024-02-23T05:14:59;155600;;;5.8;9
66206;BME280;53009;52.490;4.976;2024-02-23T05:20:02;155600;;;5.8;9.2
66206;BME280;53009;52.490;4.976;2024-02-23T05:24:59;155600;;;5.8;9.3
66206;BME280;53009;52.490;4.976;2024-02-23T05:29:59;155600;;;5.7;9.3
66206;BME280;53009;52.490;4.976;2024-02-23T05:34:59;155600;;;5.7;9.4
66206;BME280;53009;52.490;4.976;2024-02-23T05:39:59;155600;;;5.6;9.4
66206;BME280;53009;52.490;4.976;2024-02-23T05:44:59;155600;;;5.6;9.4
66206;BME280;53009;52.490;4.976;2024-02-23T05:49:59;155600;;;5.6;9.4
66206;BME280;53009;52.490;4.976;2024-02-23T05:54:59;155600;;;5.5;9.5
66206;BME280;53009;52.490;4.976;2024-02-23T05:59:59;155600;;;5.5;9.4
66206;BME280;53009;52.490;4.976;2024-02-23T06:04:59;155700;;;5.5;9.4
66206;BME280;53009;52.490;4.976;2024-02-23T06:09:59;155700;;;5.5;9.4
66206;BME280;53009;52.490;4.976;2024-02-23T06:14:59;155700;;;5.5;9.4
66206;BME280;53009;52.490;4.976;2024-02-23T06:19:59;155700;;;5.6;9.3
66206;BME280;53009;52.490;4.976;2024-02-23T06:24:59;155700;;;5.5;9.3
66206;BME280;53009;52.490;4.976;2024-02-23T06:29:59;155800;;;5.5;9.3
66206;BME280;53009;52.490;4.976;2024-02-23T06:34:59;155800;;;5.6;9.3
66206;BME280;53009;52.490;4.976;2024-02-23T06:40:03;155800;;;5.7;9.2
66206;BME280;53009;52.490;4.976;2024-02-23T06:44:59;155800;;;5.8;9.2
66206;BME280;53009;52.490;4.976;2024-02-23T06:49:59;155800;;;5.8;9.2
66206;BME280;53009;52.490;4.976;2024-02-23T06:54:59;155800;;;5.9;9.1
66206;BME280;53009;52.490;4.976;2024-02-23T06:59:59;155800;;;5.9;9.2
66206;BME280;53009;52.490;4.976;2024-02-23T07:04:59;155800;;;5.9;9.2
66206;BME280;53009;52.490;4.976;2024-02-23T07:09:59;155900;;;5.9;9.1
66206;BME280;53009;52.490;4.976;2024-02-23T07:14:59;155900;;;5.9;9.1
66206;BME280;53009;52.490;4.976;2024-02-23T07:19:59;155900;;;5.9;9
66206;BME280;53009;52.490;4.976;2024-02-23T07:25:03;155900;;;5.9;9.1
66206;BME280;53009;52.490;4.976;2024-02-23T07:29:59;156000;;;5.9;9
66206;BME280;53009;52.490;4.976;2024-02-23T07:34:59;156000;;;6;9
66206;BME280;53009;52.490;4.976;2024-02-23T07:39:59;156000;;;6;9
66206;BME280;53009;52.490;4.976;2024-02-23T07:44:59;156000;;;6;8.9
66206;BME280;53009;52.490;4.976;2024-02-23T07:49:59;156000;;;6;8.9
66206;BME280;53009;52.490;4.976;2024-02-23T07:55:00;156000;;;6.1;8.8
66206;BME280;53009;52.490;4.976;2024-02-23T08:00:00;156000;;;6.1;8.7
66206;BME280;53009;52.490;4.976;2024-02-23T08:05:00;156000;;;6.1;8.8
66206;BME280;53009;52.490;4.976;2024-02-23T08:09:59;156100;;;6;8.7
66206;BME280;53009;52.490;4.976;2024-02-23T08:14:59;156100;;;6;8.8
66206;BME280;53009;52.490;4.976;2024-02-23T08:20:00;156100;;;6;9
66206;BME280;53009;52.490;4.976;2024-02-23T08:25:00;156100;;;6;9
66206;BME280;53009;52.490;4.976;2024-02-23T08:30:03;156100;;;5.8;9.2
66206;BME280;53009;52.490;4.976;2024-02-23T08:35:00;156100;;;5.7;9.6
66206;BME280;53009;52.490;4.976;2024-02-23T08:40:00;156200;;;5.5;9.7
66206;BME280;53009;52.490;4.976;2024-02-23T08:45:00;156200;;;5.4;9.9
66206;BME280;53009;52.490;4.976;2024-02-23T08:50:00;156200;;;5.5;10
66206;BME280;53009;52.490;4.976;2024-02-23T08:55:00;156200;;;5.6;10.1
66206;BME280;53009;52.490;4.976;2024-02-23T09:00:00;156200;;;5.6;10.1
66206;BME280;53009;52.490;4.976;2024-02-23T09:05:00;156100;;;5.7;10.1
66206;BME280;53009;52.490;4.976;2024-02-23T09:10:00;156100;;;5.8;10.1
66206;BME280;53009;52.490;4.976;2024-02-23T09:15:00;156200;;;5.8;10.1
66206;BME280;53009;52.490;4.976;2024-02-23T09:20:00;156200;;;5.9;10
66206;BME280;53009;52.490;4.976;2024-02-23T09:25:00;156200;;;5.9;10
66206;BME280;53009;52.490;4.976;2024-02-23T09:30:00;156200;;;5.9;10
66206;BME280;53009;52.490;4.976;2024-02-23T09:35:00;156200;;;5.8;9.9
66206;BME280;53009;52.490;4.976;2024-02-23T09:40:00;156300;;;5.8;9.8
66206;BME280;53009;52.490;4.976;2024-02-23T09:45:00;156300;;;5.8;9.8
66206;BME280;53009;52.490;4.976;2024-02-23T09:50:00;156300;;;5.9;9.8
66206;BME280;53009;52.490;4.976;2024-02-23T09:55:00;156300;;;6.2;9.7
66206;BME280;53009;52.490;4.976;2024-02-23T10:00:00;156300;;;6.3;9.3
66206;BME280;53009;52.490;4.976;2024-02-23T10:05:00;156300;;;6.4;9.3
66206;BME280;53009;52.490;4.976;2024-02-23T10:10:00;156300;;;6.5;9.2
66206;BME280;53009;52.490;4.976;2024-02-23T10:15:00;156300;;;6.7;9.1
66206;BME280;53009;52.490;4.976;2024-02-23T10:20:00;156300;;;6.7;8.9
66206;BME280;53009;52.490;4.976;2024-02-23T10:25:00;156300;;;6.7;8.5
66206;BME280;53009;52.490;4.976;2024-02-23T10:30:00;156300;;;6.8;8.5
66206;BME280;53009;52.490;4.976;2024-02-23T10:35:00;156300;;;6.9;8.3
66206;BME280;53009;52.490;4.976;2024-02-23T10:40:00;156300;;;6.9;8.4
66206;BME280;53009;52.490;4.976;2024-02-23T10:45:00;156300;;;7;8.2
66206;BME280;53009;52.490;4.976;2024-02-23T10:50:00;156300;;;7.1;7.9
66206;BME280;53009;52.490;4.976;2024-02-23T10:55:00;156300;;;7.3;7.8
66206;BME280;53009;52.490;4.976;2024-02-23T11:00:00;156300;;;7.5;7.8
66206;BME280;53009;52.490;4.976;2024-02-23T11:05:00;156300;;;7.5;7.8
66206;BME280;53009;52.490;4.976;2024-02-23T11:10:00;156300;;;7.7;7.6
66206;BME280;53009;52.490;4.976;2024-02-23T11:15:00;156300;;;7.9;7.5
66206;BME280;53009;52.490;4.976;2024-02-23T11:20:02;156300;;;7.8;7.4
66206;BME280;53009;52.490;4.976;2024-02-23T11:25:00;156300;;;7.8;7.4
66206;BME280;53009;52.490;4.976;2024-02-23T11:30:01;156300;;;8.1;7.5
66206;BME280;53009;52.490;4.976;2024-02-23T11:35:00;156300;;;8;7.4
66206;BME280;53009;52.490;4.976;2024-02-23T11:40:00;156300;;;8.2;7.1
66206;BME280;53009;52.490;4.976;2024-02-23T11:45:00;156300;;;8.3;7
66206;BME280;53009;52.490;4.976;2024-02-23T11:50:00;156300;;;8.4;7
66206;BME280;53009;52.490;4.976;2024-02-23T11:55:00;156300;;;8.6;7
66206;BME280;53009;52.490;4.976;2024-02-23T12:00:00;156300;;;8.7;6.6
66206;BME280;53009;52.490;4.976;2024-02-23T12:05:00;156300;;;8.6;7
66206;BME280;53009;52.490;4.976;2024-02-23T12:10:00;156300;;;8.6;6.7
66206;BME280;53009;52.490;4.976;2024-02-23T12:15:00;156300;;;8.5;7
66206;BME280;53009;52.490;4.976;2024-02-23T12:20:01;156300;;;8.4;6.7
66206;BME280;53009;52.490;4.976;2024-02-23T12:25:00;156300;;;8.3;7
66206;BME280;53009;52.490;4.976;2024-02-23T12:30:00;156200;;;8.3;7.2
66206;BME280;53009;52.490;4.976;2024-02-23T12:35:00;156300;;;8.5;7
66206;BME280;53009;52.490;4.976;2024-02-23T12:40:00;156300;;;8.6;7.2
66206;BME280;53009;52.490;4.976;2024-02-23T12:45:00;156300;;;8.5;6.9
66206;BME280;53009;52.490;4.976;2024-02-23T12:50:00;156200;;;8.4;6.8
66206;BME280;53009;52.490;4.976;2024-02-23T12:55:00;156200;;;8.4;7.5
66206;BME280;53009;52.490;4.976;2024-02-23T13:00:00;156200;;;8.3;7
66206;BME280;53009;52.490;4.976;2024-02-23T13:05:00;156200;;;8.5;7.3
66206;BME280;53009;52.490;4.976;2024-02-23T13:10:00;156200;;;8.9;7.1
66206;BME280;53009;52.490;4.976;2024-02-23T13:15:00;156200;;;9.3;6.5
66206;BME280;53009;52.490;4.976;2024-02-23T13:20:00;156200;;;9.7;6.8
66206;BME280;53009;52.490;4.976;2024-02-23T13:25:00;156200;;;9.3;6.3
66206;BME280;53009;52.490;4.976;2024-02-23T13:30:00;156200;;;9.3;6.1
66206;BME280;53009;52.490;4.976;2024-02-23T13:35:00;156200;;;9.4;6.7
66206;BME280;53009;52.490;4.976;2024-02-23T13:40:00;156200;;;9.2;6.5
66206;BME280;53009;52.490;4.976;2024-02-23T13:45:00;156300;;;9;6.5
66206;BME280;53009;52.490;4.976;2024-02-23T13:50:00;156300;;;9.1;6.4
66206;BME280;53009;52.490;4.976;2024-02-23T13:55:00;156300;;;9.6;6.3
66206;BME280;53009;52.490;4.976;2024-02-23T14:00:08;156300;;;9.5;6.2
66206;BME280;53009;52.490;4.976;2024-02-23T14:05:01;156300;;;9.2;5.9
66206;BME280;53009;52.490;4.976;2024-02-23T14:10:00;156300;;;9.2;6.4
66206;BME280;53009;52.490;4.976;2024-02-23T14:15:00;156300;;;9.1;6
66206;BME280;53009;52.490;4.976;2024-02-23T14:20:00;156300;;;9;6.5
66206;BME280;53009;52.490;4.976;2024-02-23T14:25:00;156200;;;9.1;6.4
66206;BME280;53009;52.490;4.976;2024-02-23T14:30:00;156200;;;9;6.2
66206;BME280;53009;52.490;4.976;2024-02-23T14:35:01;156200;;;9;6.3
66206;BME280;53009;52.490;4.976;2024-02-23T14:40:00;156200;;;9.1;6.3
66206;BME280;53009;52.490;4.976;2024-02-23T14:45:00;156200;;;9.1;6.3
66206;BME280;53009;52.490;4.976;2024-02-23T14:50:00;156200;;;9.1;6.6
66206;BME280;53009;52.490;4.976;2024-02-23T14:55:00;156200;;;8.9;6.5
66206;BME280;53009;52.490;4.976;2024-02-23T15:00:05;156200;;;8.7;6.5
66206;BME280;53009;52.490;4.976;2024-02-23T15:05:00;156200;;;8.8;6.6
66206;BME280;53009;52.490;4.976;2024-02-23T15:10:00;156100;;;8.9;6.7
66206;BME280;53009;52.490;4.976;2024-02-23T15:15:00;156100;;;8.8;6.8
66206;BME280;53009;52.490;4.976;2024-02-23T15:20:00;156100;;;8.7;6.8
66206;BME280;53009;52.490;4.976;2024-02-23T15:25:00;156100;;;8.7;6.8
66206;BME280;53009;52.490;4.976;2024-02-23T15:30:00;156100;;;8.7;6.7
66206;BME280;53009;52.490;4.976;2024-02-23T15:35:00;156100;;;8.8;6.5
66206;BME280;53009;52.490;4.976;2024-02-23T15:40:00;156100;;;8.8;6.7
66206;BME280;53009;52.490;4.976;2024-02-23T15:45:00;156100;;;8.7;6.4
66206;BME280;53009;52.490;4.976;2024-02-23T15:50:00;156100;;;8.7;6.5
66206;BME280;53009;52.490;4.976;2024-02-23T15:55:00;156100;;;8.6;6.5
66206;BME280;53009;52.490;4.976;2024-02-23T16:00:00;156100;;;8.5;6.7
66206;BME280;53009;52.490;4.976;2024-02-23T16:05:00;156100;;;8.4;6.8
66206;BME280;53009;52.490;4.976;2024-02-23T16:10:00;156100;;;8.3;6.8
66206;BME280;53009;52.490;4.976;2024-02-23T16:15:00;156100;;;8.3;6.7
66206;BME280;53009;52.490;4.976;2024-02-23T16:20:00;156100;;;8.3;6.9
66206;BME280;53009;52.490;4.976;2024-02-23T16:25:00;156100;;;8.3;6.9
66206;BME280;53009;52.490;4.976;2024-02-23T16:30:01;156100;;;8.2;6.8
66206;BME280;53009;52.490;4.976;2024-02-23T16:35:00;156000;;;8.2;7.1
66206;BME280;53009;52.490;4.976;2024-02-23T16:40:00;156000;;;8.1;7
66206;BME280;53009;52.490;4.976;2024-02-23T16:45:00;156000;;;8.1;7.1
66206;BME280;53009;52.490;4.976;2024-02-23T16:50:00;156000;;;8;7.1
66206;BME280;53009;52.490;4.976;2024-02-23T16:55:00;156000;;;8;7.1
66206;BME280;53009;52.490;4.976;2024-02-23T17:00:05;156000;;;8;7.2
66206;BME280;53009;52.490;4.976;2024-02-23T17:05:00;156000;;;8;7.3
66206;BME280;53009;52.490;4.976;2024-02-23T17:10:00;156000;;;7.9;7.3
66206;BME280;53009;52.490;4.976;2024-02-23T17:15:02;156100;;;7.9;7.4
66206;BME280;53009;52.490;4.976;2024-02-23T17:20:04;156000;;;7.8;7.5
66206;BME280;53009;52.490;4.976;2024-02-23T17:25:00;156100;;;7.7;7.4
66206;BME280;53009;52.490;4.976;2024-02-23T17:30:00;156100;;;7.7;7.7
66206;BME280;53009;52.490;4.976;2024-02-23T17:35:00;156100;;;7.7;7.7
66206;BME280;53009;52.490;4.976;2024-02-23T17:40:00;156100;;;7.8;7.3
66206;BME280;53009;52.490;4.976;2024-02-23T17:45:00;156100;;;7.7;7.7
66206;BME280;53009;52.490;4.976;2024-02-23T17:50:00;156200;;;7.6;7.4
66206;BME280;53009;52.490;4.976;2024-02-23T17:55:00;156200;;;7.6;7.8
66206;BME280;53009;52.490;4.976;2024-02-23T18:00:00;156200;;;7.6;7.7
66206;BME280;53009;52.490;4.976;2024-02-23T18:05:00;156200;;;7.6;7.7
66206;BME280;53009;52.490;4.976;2024-02-23T18:10:00;156200;;;7.5;7.8
66206;BME280;53009;52.490;4.976;2024-02-23T18:15:00;156200;;;7.4;7.8
66206;BME280;53009;52.490;4.976;2024-02-23T18:20:00;156200;;;7.4;7.8
66206;BME280;53009;52.490;4.976;2024-02-23T18:25:00;156200;;;7.3;7.8
66206;BME280;53009;52.490;4.976;2024-02-23T18:30:00;156200;;;7.3;7.9
66206;BME280;53009;52.490;4.976;2024-02-23T18:35:00;156200;;;7.2;7.9
66206;BME280;53009;52.490;4.976;2024-02-23T18:40:00;156200;;;7.1;8
66206;BME280;53009;52.490;4.976;2024-02-23T18:45:01;156200;;;7;8.1
66206;BME280;53009;52.490;4.976;2024-02-23T18:50:00;156200;;;7;8.1
66206;BME280;53009;52.490;4.976;2024-02-23T18:55:00;156200;;;7;8.1
66206;BME280;53009;52.490;4.976;2024-02-23T19:00:05;156200;;;7;8.1
66206;BME280;53009;52.490;4.976;2024-02-23T19:05:00;156200;;;7;8.2
66206;BME280;53009;52.490;4.976;2024-02-23T19:10:00;156200;;;6.9;8.1
66206;BME280;53009;52.490;4.976;2024-02-23T19:15:00;156200;;;6.9;8.4
66206;BME280;53009;52.490;4.976;2024-02-23T19:20:00;156200;;;6.8;8.2
66206;BME280;53009;52.490;4.976;2024-02-23T19:25:00;156200;;;6.7;8.3
66206;BME280;53009;52.490;4.976;2024-02-23T19:30:00;156200;;;6.8;8.2
66206;BME280;53009;52.490;4.976;2024-02-23T19:35:00;156200;;;6.8;8.3
66206;BME280;53009;52.490;4.976;2024-02-23T19:40:00;156200;;;6.8;8.3
66206;BME280;53009;52.490;4.976;2024-02-23T19:45:00;156200;;;6.8;8.4
66206;BME280;53009;52.490;4.976;2024-02-23T19:50:00;156200;;;6.8;8.3
66206;BME280;53009;52.490;4.976;2024-02-23T19:55:00;156200;;;6.8;8.3
66206;BME280;53009;52.490;4.976;2024-02-23T20:00:07;156200;;;6.8;8.4
66206;BME280;53009;52.490;4.976;2024-02-23T20:05:00;156100;;;6.7;8.4
66206;BME280;53009;52.490;4.976;2024-02-23T20:10:00;156100;;;6.7;8.4
66206;BME280;53009;52.490;4.976;2024-02-23T20:15:00;156100;;;6.7;8.5
66206;BME280;53009;52.490;4.976;2024-02-23T20:20:00;156100;;;6.7;8.4
66206;BME280;53009;52.490;4.976;2024-02-23T20:25:00;156100;;;6.7;8.6
66206;BME280;53009;52.490;4.976;2024-02-23T20:30:04;156100;;;6.7;8.6
66206;BME280;53009;52.490;4.976;2024-02-23T20:35:00;156100;;;6.7;8.7
66206;BME280;53009;52.490;4.976;2024-02-23T20:40:01;156100;;;6.7;8.6
66206;BME280;53009;52.490;4.976;2024-02-23T20:45:01;156100;;;6.7;8.7
66206;BME280;53009;52.490;4.976;2024-02-23T20:50:01;156100;;;6.7;8.6
66206;BME280;53009;52.490;4.976;2024-02-23T20:55:01;156100;;;6.7;8.7
66206;BME280;53009;52.490;4.976;2024-02-23T21:00:05;156100;;;6.6;8.6
66206;BME280;53009;52.490;4.976;2024-02-23T21:05:00;156100;;;6.5;8.7
66206;BME280;53009;52.490;4.976;2024-02-23T21:10:00;156100;;;6.5;8.8
66206;BME280;53009;52.490;4.976;2024-02-23T21:15:01;156100;;;6.4;8.8
66206;BME280;53009;52.490;4.976;2024-02-23T21:20:01;156100;;;6.4;8.9
66206;BME280;53009;52.490;4.976;2024-02-23T21:25:01;156100;;;6.3;8.8
66206;BME280;53009;52.490;4.976;2024-02-23T21:30:01;156100;;;6.3;8.8
66206;BME280;53009;52.490;4.976;2024-02-23T21:35:01;156100;;;6.3;8.8
66206;BME280;53009;52.490;4.976;2024-02-23T21:40:01;156000;;;6.3;8.9
66206;BME280;53009;52.490;4.976;2024-02-23T21:45:01;156000;;;6.3;8.9
66206;BME280;53009;52.490;4.976;2024-02-23T21:50:01;156000;;;6.3;8.9
66206;BME280;53009;52.490;4.976;2024-02-23T21:55:01;156000;;;6.3;8.8
66206;BME280;53009;52.490;4.976;2024-02-23T22:00:04;156000;;;6.3;8.9
66206;BME280;53009;52.490;4.976;2024-02-23T22:05:01;156000;;;6.3;9
66206;BME280;53009;52.490;4.976;2024-02-23T22:10:01;156000;;;6.2;8.9
66206;BME280;53009;52.490;4.976;2024-02-23T22:15:01;156000;;;6.1;9
66206;BME280;53009;52.490;4.976;2024-02-23T22:20:01;156000;;;6.1;9.1
66206;BME280;53009;52.490;4.976;2024-02-23T22:25:01;156000;;;6.1;9.1
66206;BME280;53009;52.490;4.976;2024-02-23T22:30:02;156000;;;6;9.1
66206;BME280;53009;52.490;4.976;2024-02-23T22:35:01;156000;;;5.9;9.2
66206;BME280;53009;52.490;4.976;2024-02-23T22:40:01;156000;;;5.9;9.3
66206;BME280;53009;52.490;4.976;2024-02-23T22:45:01;156000;;;5.9;9.3
66206;BME280;53009;52.490;4.976;2024-02-23T22:50:01;156000;;;5.9;9.3
66206;BME280;53009;52.490;4.976;2024-02-23T22:55:01;156000;;;5.9;9.3
66206;BME280;53009;52.490;4.976;2024-02-23T23:00:13;156000;;;5.9;9.4
66206;BME280;53009;52.490;4.976;2024-02-23T23:05:01;156000;;;6;9.5
66206;BME280;53009;52.490;4.976;2024-02-23T23:10:01;156000;;;6;9.3
66206;BME280;53009;52.490;4.976;2024-02-23T23:15:01;156000;;;6.1;9.3
66206;BME280;53009;52.490;4.976;2024-02-23T23:20:01;155900;;;6.1;9.2
66206;BME280;53009;52.490;4.976;2024-02-23T23:25:01;155900;;;6;9.2
66206;BME280;53009;52.490;4.976;2024-02-23T23:30:01;155900;;;6;9.2
66206;BME280;53009;52.490;4.976;2024-02-23T23:35:01;155900;;;5.9;9.4
66206;BME280;53009;52.490;4.976;2024-02-23T23:40:01;155900;;;5.8;9.4
66206;BME280;53009;52.490;4.976;2024-02-23T23:45:01;155900;;;5.8;9.4
66206;BME280;53009;52.490;4.976;2024-02-23T23:50:01;155900;;;5.7;9.5
66206;BME280;53009;52.490;4.976;2024-02-23T23:55:01;155900;;;5.7;9.5
